Tropical Cyclones
[Index]
Main Index Home Page Stock Weather Photos Extreme Storms Discussion Storm News and Storm Chasing Reports Tropical Cyclones / Hurricanes / Typhoons Weather Data and Links Wild Fires / Bushfires Weather Observation Techniques Weather Picture Catalogue Tornado Pictures and Reports Stock Video Footage and DVDs for sale
Season 2009-2010 Tropical Cyclone RENE Track Map
Season 2009-2010 Summaries (Operational Data): [AU] [SIO] [SPAC] [SH]
<<- Previous TC | 2009-2010 Season | Next TC ->>

click for intensity scale information  Lat/long Grid: Show Hide

 Date Labels: Show Hide

Operational Tropical Cyclone Data : JTWC Advisories

Name: RENE
Number: 1015

09 Feb 2010 12:00 UTC to 19 Feb 2010 12:00 UTC

    date/time    lat    long     hPa   cat  kts
2010-02-09 12   13.0   172.0W   1004         25          
2010-02-09 18   13.0   172.0W   1003         25          
2010-02-10 00   12.0   172.0W   1003         25          
2010-02-10 06   13.0   170.9W   1000         30          
2010-02-10 12   13.0   170.0W   1000         30          
2010-02-10 18   12.5   167.9W    998         30          
2010-02-11 00   12.7   167.4W    997         30          
2010-02-11 06   12.1   166.6W    997         25          
2010-02-11 12   12.2   165.9W    987    1    45          
2010-02-11 18   12.5   166.1W    985    2    50          
2010-02-12 00   13.3   166.3W    985    2    50          
2010-02-12 06   13.5   166.7W    980    2    55          
2010-02-12 12   13.8   167.4W    980    2    55          
2010-02-12 18   14.2   168.6W    980    2    55          
2010-02-13 00   14.1   169.4W    975    2    60          
2010-02-13 06   14.2   169.8W    970    3    65          
2010-02-13 12   14.7   169.7W    970    3    65          
2010-02-13 18   15.9   170.2W    950    3    80          
2010-02-14 00   16.8   171.1W    950    3    80          
2010-02-14 06   17.6   172.5W    940    4    90          
2010-02-14 12   17.8   173.1W    940    4    90          
2010-02-14 18   18.7   174.1W    940    4    90          
2010-02-15 00   19.5   174.3W    940    3    85          
2010-02-15 06   20.9   175.0W    945    3    85          
2010-02-15 12   22.0   176.2W    955    3    80          
2010-02-15 18   22.7   176.4W    975    2    60          
2010-02-16 00   24.0   178.1W    980    2    55          
2010-02-16 06   24.3   179.4W    995    1    35          
2010-02-16 12   24.6   179.9W    995    1    35          
2010-02-16 18   25.9   178.2     992    1    35          
2010-02-17 06   26.5   175.5     996                     
2010-02-17 12   27.3   174.9     999                     
2010-02-17 18   28.2   174.6     998                     
2010-02-18 00   29.7   175.0     999                     
2010-02-18 06   30.2   176.7     997                     
2010-02-18 12   32.2   176.7     998                     
2010-02-18 18   35.0   179.3     998                     
2010-02-19 00   35.3   177.5W    998                     
2010-02-19 06   38.6   172.5W    995                     
2010-02-19 12   40.8   167.6W    999                     
Winds are 10-min average.

Tropical cyclone tracks developed by Michael Bath using operational warnings and advisories and Google Maps.


[Australian Severe Weather index] [Copyright Notice] [Email Contacts] [Search This Site] [Privacy Policy]
Document: tropical_cyclone_rene.htm Updated: 28 May 2013